Time;durP1;ratioP1;P1;durP2;ratioP2;P2;SDS_P1;SDS_P2;PMS_P1;PMS_P2;Temp;Humidity;BMP_temperature;BMP_pressure;BME280_temperature;BME280_humidity;BME280_pressure;Samples;Min_cycle;Max_cycle;Signal;HPM_P1;HPM_P2
2022/11/30 00:01:21;;;;;;;28.03;16.93;;;;;;;;;;5068546;28;20184;-79
2022/11/30 00:03:48;;;;;;;32.30;19.10;;;;;;;;;;5066729;28;20725;-80
2022/11/30 00:06:16;;;;;;;29.07;18.23;;;;;;;;;;5083044;28;20182;-78
2022/11/30 00:08:42;;;;;;;24.00;16.27;;;;;;;;;;5079408;28;20208;-79
2022/11/30 00:11:10;;;;;;;28.77;18.60;;;;;;;;;;5074002;28;20706;-78
2022/11/30 00:13:36;;;;;;;25.60;16.93;;;;;;;;;;5056463;28;20176;-79
2022/11/30 00:16:02;;;;;;;25.83;16.77;;;;;;;;;;5091980;28;20286;-79
2022/11/30 00:18:29;;;;;;;26.73;16.33;;;;;;;;;;5070500;28;20199;-80
2022/11/30 00:20:58;;;;;;;26.47;17.07;;;;;;;;;;5069055;28;20284;-80
2022/11/30 00:23:24;;;;;;;27.33;17.07;;;;;;;;;;5055750;28;20185;-80
2022/11/30 00:25:50;;;;;;;27.40;17.30;;;;;;;;;;5068018;28;20196;-80
2022/11/30 00:28:17;;;;;;;32.23;17.87;;;;;;;;;;5094079;28;20206;-80
2022/11/30 00:30:43;;;;;;;29.37;18.80;;;;;;;;;;5063116;28;20271;-80
2022/11/30 00:33:09;;;;;;;32.77;19.37;;;;;;;;;;5077285;28;20184;-79
2022/11/30 00:35:35;;;;;;;29.93;18.27;;;;;;;;;;5063775;28;20185;-79
2022/11/30 00:38:02;;;;;;;37.50;20.97;;;;;;;;;;5063961;28;20208;-78
2022/11/30 00:40:28;;;;;;;34.77;20.13;;;;;;;;;;5062996;28;20192;-80
2022/11/30 00:42:54;;;;;;;40.13;21.60;;;;;;;;;;5074826;28;20188;-79
2022/11/30 00:45:20;;;;;;;33.83;18.90;;;;;;;;;;5063801;28;20330;-80
2022/11/30 00:47:46;;;;;;;34.90;19.17;;;;;;;;;;5074474;28;20193;-80
2022/11/30 00:50:12;;;;;;;32.60;19.27;;;;;;;;;;5059511;28;20192;-80
2022/11/30 00:52:38;;;;;;;32.67;20.50;;;;;;;;;;5065127;28;20185;-81
2022/11/30 00:55:05;;;;;;;37.53;21.47;;;;;;;;;;5055038;28;20184;-80
2022/11/30 00:57:31;;;;;;;35.47;19.87;;;;;;;;;;5077518;28;20308;-80
2022/11/30 00:59:57;;;;;;;39.17;20.43;;;;;;;;;;5086746;28;20279;-80
2022/11/30 01:02:23;;;;;;;32.27;18.80;;;;;;;;;;5063354;28;20270;-80
2022/11/30 01:04:50;;;;;;;34.27;20.73;;;;;;;;;;5073072;28;20242;-79
2022/11/30 01:07:16;;;;;;;33.53;20.77;;;;;;;;;;5090534;28;20216;-78
2022/11/30 01:09:42;;;;;;;35.63;19.20;;;;;;;;;;5063006;28;20180;-79
2022/11/30 01:12:08;;;;;;;36.27;20.83;;;;;;;;;;5070249;28;20176;-80
2022/11/30 01:14:34;;;;;;;39.63;21.17;;;;;;;;;;5076729;28;20267;-78
2022/11/30 01:17:01;;;;;;;36.47;20.23;;;;;;;;;;5072973;28;20216;-78
2022/11/30 01:19:27;;;;;;;45.87;22.47;;;;;;;;;;5075208;28;20219;-79
2022/11/30 01:21:53;;;;;;;40.90;22.07;;;;;;;;;;5072810;28;20192;-80
2022/11/30 01:24:19;;;;;;;40.60;22.43;;;;;;;;;;5087804;28;20254;-79
2022/11/30 01:26:45;;;;;;;39.70;22.77;;;;;;;;;;5080738;28;20215;-79
2022/11/30 01:29:12;;;;;;;34.70;19.77;;;;;;;;;;5091383;28;20821;-80
2022/11/30 01:31:38;;;;;;;40.37;22.03;;;;;;;;;;5059975;28;20211;-80
2022/11/30 01:34:04;;;;;;;42.37;22.27;;;;;;;;;;5096787;28;20195;-80
2022/11/30 01:36:31;;;;;;;43.63;24.33;;;;;;;;;;5079698;28;20230;-79
2022/11/30 01:38:57;;;;;;;33.27;20.80;;;;;;;;;;5077585;28;20223;-79
2022/11/30 01:41:31;;;;;;;42.10;22.87;;;;;;;;;;5094889;28;20183;-80
2022/11/30 01:44:17;;;;;;;39.13;22.23;;;;;;;;;;5082649;28;20210;-80
2022/11/30 01:46:54;;;;;;;40.80;22.20;;;;;;;;;;5055417;28;20848;-80
2022/11/30 01:49:27;;;;;;;40.13;22.20;;;;;;;;;;5074345;28;20188;-79
2022/11/30 01:52:32;;;;;;;43.37;22.33;;;;;;;;;;5062097;28;20558;-78
2022/11/30 01:55:02;;;;;;;41.03;22.97;;;;;;;;;;5038799;28;20216;-78
2022/11/30 01:57:36;;;;;;;42.23;22.63;;;;;;;;;;5036099;28;20739;-80
2022/11/30 02:00:06;;;;;;;40.43;22.13;;;;;;;;;;5053832;28;20192;-78
2022/11/30 02:02:43;;;;;;;41.53;22.47;;;;;;;;;;5090499;28;20181;-78
2022/11/30 02:05:10;;;;;;;39.87;21.47;;;;;;;;;;5077364;28;20675;-80
2022/11/30 02:07:37;;;;;;;47.23;23.83;;;;;;;;;;5093732;28;20196;-80
2022/11/30 02:10:03;;;;;;;38.17;21.97;;;;;;;;;;5100763;28;20189;-79
2022/11/30 02:12:37;;;;;;;50.37;23.37;;;;;;;;;;5105918;28;20199;-80
2022/11/30 02:15:08;;;;;;;45.27;23.93;;;;;;;;;;5075558;28;20253;-79
2022/11/30 02:17:34;;;;;;;52.23;24.83;;;;;;;;;;5057260;28;20210;-77
2022/11/30 02:20:00;;;;;;;38.57;22.40;;;;;;;;;;5064125;28;20185;-79
2022/11/30 02:22:48;;;;;;;43.70;23.53;;;;;;;;;;5078523;28;20215;-78
2022/11/30 02:25:26;;;;;;;42.60;22.87;;;;;;;;;;5088140;28;20263;-79
2022/11/30 02:27:58;;;;;;;36.17;22.43;;;;;;;;;;5055567;28;20209;-79
2022/11/30 02:30:24;;;;;;;36.23;20.93;;;;;;;;;;5076509;28;20268;-79
2022/11/30 02:33:02;;;;;;;37.93;21.20;;;;;;;;;;5090559;28;20205;-80
2022/11/30 02:35:31;;;;;;;47.73;24.77;;;;;;;;;;5102293;28;20227;-79
2022/11/30 02:38:00;;;;;;;37.03;20.73;;;;;;;;;;5069830;28;20201;-80
2022/11/30 02:40:26;;;;;;;36.80;21.07;;;;;;;;;;5070705;28;20368;-78
2022/11/30 02:42:54;;;;;;;35.47;20.53;;;;;;;;;;5076924;28;20184;-80
2022/11/30 02:45:22;;;;;;;36.57;21.00;;;;;;;;;;5075282;28;20219;-79
2022/11/30 02:48:01;;;;;;;34.53;20.10;;;;;;;;;;5091252;28;20205;-79
2022/11/30 02:50:28;;;;;;;35.10;21.13;;;;;;;;;;5058310;28;20176;-80
2022/11/30 02:52:59;;;;;;;31.87;19.93;;;;;;;;;;5095005;28;20193;-79
2022/11/30 02:55:29;;;;;;;34.23;20.33;;;;;;;;;;5081765;28;20283;-78
2022/11/30 02:57:59;;;;;;;38.83;20.50;;;;;;;;;;5093982;28;20208;-78
2022/11/30 03:00:28;;;;;;;31.10;19.47;;;;;;;;;;5077329;28;20279;-79
2022/11/30 03:02:54;;;;;;;34.43;19.03;;;;;;;;;;5095866;28;20177;-79
2022/11/30 03:05:21;;;;;;;34.20;20.33;;;;;;;;;;5091279;28;20217;-78
2022/11/30 03:07:47;;;;;;;32.13;19.17;;;;;;;;;;5095347;28;20204;-79
2022/11/30 03:10:13;;;;;;;37.70;20.87;;;;;;;;;;5072008;28;20181;-80
2022/11/30 03:12:39;;;;;;;38.03;21.30;;;;;;;;;;5062312;28;20238;-80
2022/11/30 03:15:05;;;;;;;45.63;22.40;;;;;;;;;;5079153;28;20179;-79
2022/11/30 03:17:32;;;;;;;36.57;20.37;;;;;;;;;;5071613;28;20338;-80
2022/11/30 03:19:58;;;;;;;38.40;20.77;;;;;;;;;;5058434;28;20254;-80
2022/11/30 03:22:24;;;;;;;31.73;20.90;;;;;;;;;;5076127;28;20184;-80
2022/11/30 03:24:50;;;;;;;28.60;19.27;;;;;;;;;;5081370;28;20674;-80
2022/11/30 03:27:16;;;;;;;30.87;18.87;;;;;;;;;;5081901;28;20552;-79
2022/11/30 03:29:42;;;;;;;31.90;19.00;;;;;;;;;;5066227;28;20193;-79
2022/11/30 03:32:09;;;;;;;28.73;18.27;;;;;;;;;;5070494;28;20318;-80
2022/11/30 03:34:35;;;;;;;30.70;19.13;;;;;;;;;;5076908;28;20181;-79
2022/11/30 03:37:01;;;;;;;31.73;18.93;;;;;;;;;;5084337;28;20703;-77
2022/11/30 03:39:27;;;;;;;30.27;19.00;;;;;;;;;;5098122;28;20181;-78
2022/11/30 03:41:53;;;;;;;30.03;19.50;;;;;;;;;;5079104;28;20184;-79
2022/11/30 03:44:19;;;;;;;31.73;20.17;;;;;;;;;;5098156;28;20257;-78
2022/11/30 03:46:46;;;;;;;33.93;20.43;;;;;;;;;;5089022;28;20247;-79
2022/11/30 03:49:12;;;;;;;30.87;20.47;;;;;;;;;;5073649;28;20168;-80
2022/11/30 03:51:38;;;;;;;30.53;19.03;;;;;;;;;;5093548;28;20245;-76
2022/11/30 03:54:04;;;;;;;33.53;19.87;;;;;;;;;;5069921;28;20797;-77
2022/11/30 03:56:31;;;;;;;26.40;17.10;;;;;;;;;;5063091;28;20574;-79
2022/11/30 03:58:57;;;;;;;23.07;16.67;;;;;;;;;;5068498;28;20302;-80
2022/11/30 04:01:23;;;;;;;21.73;16.00;;;;;;;;;;5070865;28;20725;-80
2022/11/30 04:03:50;;;;;;;28.23;17.83;;;;;;;;;;5049577;28;20272;-80
2022/11/30 04:06:17;;;;;;;29.63;18.83;;;;;;;;;;5081239;28;20180;-78
2022/11/30 04:08:43;;;;;;;24.70;17.13;;;;;;;;;;5053430;28;20233;-79
2022/11/30 04:11:09;;;;;;;24.10;16.93;;;;;;;;;;5086182;28;20580;-79
2022/11/30 04:13:36;;;;;;;26.47;16.73;;;;;;;;;;5055456;28;20268;-79
2022/11/30 04:16:03;;;;;;;25.13;18.53;;;;;;;;;;5089292;28;20585;-78
2022/11/30 04:18:30;;;;;;;27.30;18.13;;;;;;;;;;5079493;28;20196;-76
2022/11/30 04:20:57;;;;;;;27.00;17.13;;;;;;;;;;5066310;28;20185;-80
2022/11/30 04:23:24;;;;;;;28.50;18.90;;;;;;;;;;5068918;28;20192;-79
2022/11/30 04:25:51;;;;;;;29.30;19.47;;;;;;;;;;5050778;28;20216;-79
2022/11/30 04:28:18;;;;;;;32.00;18.13;;;;;;;;;;5072952;28;21093;-79
2022/11/30 04:30:45;;;;;;;26.50;17.50;;;;;;;;;;5072240;28;20204;-80
2022/11/30 04:33:12;;;;;;;28.17;18.60;;;;;;;;;;5074947;28;20185;-79
2022/11/30 04:35:40;;;;;;;26.90;17.93;;;;;;;;;;5066298;28;20197;-79
2022/11/30 04:38:06;;;;;;;29.30;19.50;;;;;;;;;;5073081;28;20675;-80
2022/11/30 04:40:32;;;;;;;29.47;18.67;;;;;;;;;;5075427;28;20430;-79
2022/11/30 04:42:59;;;;;;;26.87;18.93;;;;;;;;;;5096057;28;20208;-78
2022/11/30 04:45:25;;;;;;;28.80;19.90;;;;;;;;;;5060238;28;20224;-79
2022/11/30 04:47:51;;;;;;;31.23;19.20;;;;;;;;;;5074573;28;20265;-80
2022/11/30 04:50:17;;;;;;;36.93;20.83;;;;;;;;;;5073650;28;20713;-80
2022/11/30 04:52:43;;;;;;;27.23;17.53;;;;;;;;;;5088299;28;20181;-79
2022/11/30 04:55:09;;;;;;;28.83;18.07;;;;;;;;;;5077450;28;20203;-79
2022/11/30 04:57:36;;;;;;;29.30;18.97;;;;;;;;;;5086366;28;20232;-80
2022/11/30 05:00:03;;;;;;;31.27;19.73;;;;;;;;;;5077053;28;20204;-79
2022/11/30 05:02:29;;;;;;;26.57;18.83;;;;;;;;;;5086410;28;20183;-80
2022/11/30 05:04:56;;;;;;;29.70;19.43;;;;;;;;;;5093858;28;20215;-79
2022/11/30 05:07:22;;;;;;;31.10;19.77;;;;;;;;;;5048417;28;20220;-79
2022/11/30 05:09:48;;;;;;;34.37;20.33;;;;;;;;;;5086838;28;20200;-79
2022/11/30 05:12:14;;;;;;;26.87;17.33;;;;;;;;;;5089079;28;20267;-80
2022/11/30 05:14:40;;;;;;;31.70;19.87;;;;;;;;;;5081081;28;20181;-79
2022/11/30 05:17:06;;;;;;;29.57;19.30;;;;;;;;;;5075277;28;20311;-78
2022/11/30 05:19:32;;;;;;;27.13;17.70;;;;;;;;;;5056632;28;20197;-78
2022/11/30 05:21:59;;;;;;;30.27;18.47;;;;;;;;;;5087787;28;20180;-77
2022/11/30 05:24:25;;;;;;;28.67;19.73;;;;;;;;;;5069072;28;20291;-79
2022/11/30 05:26:51;;;;;;;26.80;17.67;;;;;;;;;;5070728;28;20251;-79
2022/11/30 05:29:18;;;;;;;30.47;20.17;;;;;;;;;;5067895;28;20209;-80
2022/11/30 05:31:44;;;;;;;27.33;18.23;;;;;;;;;;5073351;28;20217;-80
2022/11/30 05:34:10;;;;;;;29.63;19.17;;;;;;;;;;5052874;28;20193;-80
2022/11/30 05:36:36;;;;;;;27.63;18.43;;;;;;;;;;5035332;28;20245;-80
2022/11/30 05:39:03;;;;;;;30.83;20.20;;;;;;;;;;5062755;28;20192;-80
2022/11/30 05:41:29;;;;;;;31.70;20.53;;;;;;;;;;5092652;28;20241;-80
2022/11/30 05:43:56;;;;;;;28.93;18.80;;;;;;;;;;5076227;28;21161;-79
2022/11/30 05:46:22;;;;;;;33.13;23.25;;;;;;;;;;5078522;28;20418;-80
2022/11/30 05:48:48;;;;;;;30.23;21.67;;;;;;;;;;5084959;28;20203;-80
2022/11/30 05:51:15;;;;;;;32.90;19.63;;;;;;;;;;5087149;28;20217;-81
2022/11/30 05:53:42;;;;;;;32.23;21.00;;;;;;;;;;5072098;28;20196;-79
2022/11/30 05:56:09;;;;;;;31.13;20.00;;;;;;;;;;5040955;28;20960;-79
2022/11/30 05:58:35;;;;;;;30.83;18.80;;;;;;;;;;5064039;28;20262;-80
2022/11/30 06:01:02;;;;;;;33.53;21.53;;;;;;;;;;5090203;28;20684;-80
2022/11/30 06:03:29;;;;;;;35.50;21.77;;;;;;;;;;5084700;28;20177;-78
2022/11/30 06:05:55;;;;;;;38.50;21.93;;;;;;;;;;5074091;28;20373;-80
2022/11/30 06:08:21;;;;;;;39.43;23.97;;;;;;;;;;5081285;28;20477;-80
2022/11/30 06:10:48;;;;;;;36.37;22.50;;;;;;;;;;5074988;28;20300;-80
2022/11/30 06:13:14;;;;;;;33.07;23.47;;;;;;;;;;5064805;28;20534;-80
2022/11/30 06:15:40;;;;;;;33.27;22.00;;;;;;;;;;5068818;28;20662;-80
2022/11/30 06:18:07;;;;;;;29.73;19.87;;;;;;;;;;5052792;28;20212;-77
2022/11/30 06:20:34;;;;;;;30.43;20.47;;;;;;;;;;5074449;28;20191;-80
2022/11/30 06:23:00;;;;;;;30.60;20.77;;;;;;;;;;5071308;28;20185;-80
2022/11/30 06:25:27;;;;;;;28.53;18.50;;;;;;;;;;5055589;28;20220;-80
2022/11/30 06:27:53;;;;;;;31.80;20.37;;;;;;;;;;5073105;28;20603;-81
2022/11/30 06:30:19;;;;;;;30.80;20.10;;;;;;;;;;5085744;28;20322;-79
2022/11/30 06:32:49;;;;;;;30.03;20.50;;;;;;;;;;5057207;28;20179;-80
2022/11/30 06:35:16;;;;;;;35.63;23.00;;;;;;;;;;5071855;28;20192;-80
2022/11/30 06:37:42;;;;;;;36.73;22.23;;;;;;;;;;5073039;28;20221;-80
2022/11/30 06:40:10;;;;;;;40.33;23.47;;;;;;;;;;5081886;28;20192;-81
2022/11/30 06:42:36;;;;;;;37.23;22.40;;;;;;;;;;5070544;28;22370;-80
2022/11/30 06:45:03;;;;;;;41.73;24.30;;;;;;;;;;5076627;28;20295;-80
2022/11/30 06:47:29;;;;;;;35.00;22.27;;;;;;;;;;5059051;28;20741;-79
2022/11/30 06:49:56;;;;;;;34.00;21.47;;;;;;;;;;5058611;28;20191;-78
2022/11/30 06:52:22;;;;;;;40.38;24.88;;;;;;;;;;5081002;28;20450;-76
2022/11/30 06:54:48;;;;;;;42.10;24.63;;;;;;;;;;5063853;28;20272;-74
2022/11/30 06:57:14;;;;;;;38.37;23.77;;;;;;;;;;5086827;28;20246;-81
2022/11/30 06:59:41;;;;;;;44.00;24.47;;;;;;;;;;5070485;28;20192;-81
2022/11/30 07:02:11;;;;;;;34.20;21.90;;;;;;;;;;5076349;28;20185;-78
2022/11/30 07:04:37;;;;;;;40.20;23.53;;;;;;;;;;5087388;28;20207;-80
2022/11/30 07:07:03;;;;;;;35.07;21.30;;;;;;;;;;5074622;28;20303;-80
2022/11/30 07:09:31;;;;;;;40.77;22.30;;;;;;;;;;5070992;28;20199;-80
2022/11/30 07:11:57;;;;;;;40.60;22.67;;;;;;;;;;5094904;28;20229;-80
2022/11/30 07:14:24;;;;;;;37.27;21.17;;;;;;;;;;5098487;28;20254;-76
2022/11/30 07:16:50;;;;;;;30.37;20.33;;;;;;;;;;5073653;28;20830;-75
2022/11/30 07:19:17;;;;;;;35.90;21.10;;;;;;;;;;5070237;28;20258;-76
2022/11/30 07:21:43;;;;;;;36.50;20.83;;;;;;;;;;5076889;28;20959;-76
2022/11/30 07:26:58;;;;;;;40.87;23.37;;;;;;;;;;5069077;28;20220;-76
2022/11/30 07:29:24;;;;;;;44.10;26.60;;;;;;;;;;5078580;28;20752;-76
2022/11/30 07:31:51;;;;;;;44.57;25.73;;;;;;;;;;5084753;28;20183;-77
2022/11/30 07:34:17;;;;;;;41.80;22.53;;;;;;;;;;5073797;28;20288;-76
2022/11/30 07:36:44;;;;;;;41.77;23.23;;;;;;;;;;5082255;28;20203;-76
2022/11/30 07:39:11;;;;;;;41.90;23.80;;;;;;;;;;5062021;28;20196;-77
2022/11/30 07:41:37;;;;;;;41.00;22.57;;;;;;;;;;5075136;28;20185;-77
2022/11/30 07:44:04;;;;;;;34.83;20.20;;;;;;;;;;5074215;28;20200;-77
2022/11/30 07:46:32;;;;;;;34.27;21.03;;;;;;;;;;5071219;28;20196;-76
2022/11/30 07:48:58;;;;;;;30.20;19.80;;;;;;;;;;5083335;28;20203;-77
2022/11/30 07:51:24;;;;;;;32.97;20.97;;;;;;;;;;5082993;28;20180;-76
2022/11/30 07:53:51;;;;;;;38.97;21.83;;;;;;;;;;5090241;28;20199;-76
2022/11/30 07:56:18;;;;;;;38.23;22.93;;;;;;;;;;5065163;28;20176;-76
2022/11/30 07:58:45;;;;;;;39.77;22.70;;;;;;;;;;5065289;28;20848;-76
2022/11/30 08:01:13;;;;;;;35.77;21.30;;;;;;;;;;5078342;28;20180;-76
2022/11/30 08:03:39;;;;;;;42.33;23.33;;;;;;;;;;5081789;28;20240;-75
2022/11/30 08:06:11;;;;;;;43.50;24.77;;;;;;;;;;5085166;28;20215;-75
2022/11/30 08:08:38;;;;;;;38.07;22.73;;;;;;;;;;5077354;28;20208;-75
2022/11/30 08:11:05;;;;;;;37.53;21.40;;;;;;;;;;5084149;28;20191;-76
2022/11/30 08:13:31;;;;;;;30.47;19.73;;;;;;;;;;5076946;28;20197;-76
2022/11/30 08:16:27;;;;;;;35.10;20.47;;;;;;;;;;5060408;28;20200;-75
2022/11/30 08:18:55;;;;;;;40.00;22.30;;;;;;;;;;5055309;28;20192;-76
2022/11/30 08:21:21;;;;;;;39.70;22.93;;;;;;;;;;5057217;28;20181;-75
2022/11/30 08:23:51;;;;;;;36.23;21.40;;;;;;;;;;5068037;28;20201;-76
2022/11/30 08:26:22;;;;;;;34.33;22.30;;;;;;;;;;5075004;28;20189;-76
2022/11/30 08:28:50;;;;;;;30.90;20.70;;;;;;;;;;5081333;28;20282;-76
2022/11/30 08:31:20;;;;;;;30.67;19.70;;;;;;;;;;5078051;28;20168;-75
2022/11/30 08:33:47;;;;;;;35.47;20.67;;;;;;;;;;5084465;28;20177;-75
2022/11/30 08:36:13;;;;;;;29.17;19.00;;;;;;;;;;5080352;28;20176;-75
2022/11/30 08:38:40;;;;;;;33.87;21.13;;;;;;;;;;5077148;28;20288;-76
2022/11/30 08:41:07;;;;;;;37.90;22.80;;;;;;;;;;5081989;28;20188;-76
2022/11/30 08:43:33;;;;;;;30.27;20.40;;;;;;;;;;5065632;28;20196;-75
2022/11/30 08:46:01;;;;;;;37.63;22.50;;;;;;;;;;5084167;28;20287;-76
2022/11/30 08:48:27;;;;;;;33.60;20.93;;;;;;;;;;5081725;28;20200;-76
2022/11/30 08:50:53;;;;;;;31.13;19.53;;;;;;;;;;5086053;28;20263;-75
2022/11/30 08:53:19;;;;;;;32.70;20.83;;;;;;;;;;5060587;28;20280;-76
2022/11/30 08:55:56;;;;;;;30.37;19.73;;;;;;;;;;5083655;28;20201;-75
2022/11/30 08:58:22;;;;;;;32.97;19.47;;;;;;;;;;5080044;28;20703;-76
2022/11/30 09:00:48;;;;;;;30.60;18.73;;;;;;;;;;5068363;28;20188;-76
2022/11/30 09:03:14;;;;;;;31.47;18.77;;;;;;;;;;5060851;28;20181;-76
2022/11/30 09:05:40;;;;;;;30.53;19.13;;;;;;;;;;5083989;28;20204;-76
2022/11/30 09:08:07;;;;;;;33.73;20.53;;;;;;;;;;5082973;28;20263;-76
2022/11/30 09:10:33;;;;;;;32.47;19.57;;;;;;;;;;5083526;28;20176;-76
2022/11/30 09:12:59;;;;;;;30.37;19.10;;;;;;;;;;5065977;28;20626;-75
2022/11/30 09:15:25;;;;;;;30.40;19.07;;;;;;;;;;5051278;28;20218;-77
2022/11/30 09:17:51;;;;;;;30.57;18.17;;;;;;;;;;5089897;28;20204;-76
2022/11/30 09:20:17;;;;;;;28.83;18.17;;;;;;;;;;5089440;28;20548;-74
2022/11/30 09:22:43;;;;;;;34.00;20.67;;;;;;;;;;5083799;28;20588;-75
2022/11/30 09:25:10;;;;;;;32.13;19.77;;;;;;;;;;5084417;28;20204;-74
2022/11/30 09:27:36;;;;;;;32.53;21.07;;;;;;;;;;5049128;28;20661;-76
2022/11/30 09:30:03;;;;;;;30.63;20.20;;;;;;;;;;5065221;28;20185;-76
2022/11/30 09:32:29;;;;;;;31.30;18.93;;;;;;;;;;5084611;28;20238;-76
2022/11/30 09:34:55;;;;;;;31.07;19.37;;;;;;;;;;5083445;28;20195;-75
2022/11/30 09:37:22;;;;;;;27.97;17.50;;;;;;;;;;5080356;28;20205;-75
2022/11/30 09:39:48;;;;;;;28.33;17.40;;;;;;;;;;5080517;28;20220;-75
2022/11/30 09:42:17;;;;;;;28.13;18.73;;;;;;;;;;5081716;28;20271;-76
2022/11/30 09:44:57;;;;;;;35.70;21.23;;;;;;;;;;5067034;28;20705;-75
2022/11/30 09:47:26;;;;;;;32.67;19.93;;;;;;;;;;5079020;28;20282;-76
2022/11/30 09:49:53;;;;;;;31.57;18.90;;;;;;;;;;5068086;28;20181;-75
2022/11/30 09:52:25;;;;;;;28.43;18.00;;;;;;;;;;5075389;28;20256;-75
2022/11/30 09:54:51;;;;;;;27.13;17.30;;;;;;;;;;5083446;28;20192;-76
2022/11/30 09:57:33;;;;;;;25.97;17.43;;;;;;;;;;5084016;28;20714;-76
2022/11/30 10:00:00;;;;;;;25.30;16.97;;;;;;;;;;5081976;28;20188;-76
2022/11/30 10:02:31;;;;;;;23.27;16.60;;;;;;;;;;5080671;28;20281;-76
2022/11/30 10:04:58;;;;;;;24.07;16.87;;;;;;;;;;5078121;28;20240;-76
2022/11/30 10:07:39;;;;;;;21.67;15.40;;;;;;;;;;5067896;28;22331;-76
2022/11/30 10:10:16;;;;;;;22.10;15.37;;;;;;;;;;5086253;28;20267;-76
2022/11/30 10:13:02;;;;;;;20.33;14.47;;;;;;;;;;5085375;28;20188;-76
2022/11/30 10:15:41;;;;;;;22.70;15.43;;;;;;;;;;5065273;28;20224;-75
2022/11/30 10:18:16;;;;;;;21.30;14.40;;;;;;;;;;5079693;28;20200;-75
2022/11/30 10:20:42;;;;;;;18.63;13.10;;;;;;;;;;5081438;28;20233;-75
2022/11/30 10:23:15;;;;;;;19.23;13.63;;;;;;;;;;5082405;28;20188;-75
2022/11/30 10:25:44;;;;;;;21.00;13.80;;;;;;;;;;5081758;28;20318;-75
2022/11/30 10:28:22;;;;;;;17.13;13.23;;;;;;;;;;5082369;28;20211;-74
2022/11/30 10:30:49;;;;;;;16.80;12.27;;;;;;;;;;5083869;28;20184;-75
2022/11/30 10:33:19;;;;;;;19.80;13.60;;;;;;;;;;5063860;28;20185;-75
2022/11/30 10:35:46;;;;;;;17.60;13.03;;;;;;;;;;5081633;28;20184;-76
2022/11/30 10:38:23;;;;;;;16.47;12.83;;;;;;;;;;5087520;28;20211;-75
2022/11/30 10:41:02;;;;;;;16.87;12.63;;;;;;;;;;5085521;28;20238;-75
2022/11/30 10:43:57;;;;;;;16.70;13.13;;;;;;;;;;5083054;28;20327;-76
2022/11/30 10:46:28;;;;;;;17.70;12.67;;;;;;;;;;5010546;28;20245;-75
2022/11/30 10:49:05;;;;;;;16.67;13.17;;;;;;;;;;5083427;28;20602;-75
2022/11/30 10:51:33;;;;;;;16.33;12.17;;;;;;;;;;5068257;28;20196;-76
2022/11/30 10:54:00;;;;;;;17.83;12.80;;;;;;;;;;5077182;28;20181;-76
2022/11/30 10:56:26;;;;;;;16.73;13.13;;;;;;;;;;5066779;28;20724;-76
2022/11/30 10:58:56;;;;;;;16.13;12.40;;;;;;;;;;5069837;28;20200;-75
2022/11/30 11:01:34;;;;;;;17.60;12.63;;;;;;;;;;5055049;28;20193;-74
2022/11/30 11:04:12;;;;;;;14.50;11.73;;;;;;;;;;5083775;28;20187;-76
2022/11/30 11:06:54;;;;;;;14.40;11.30;;;;;;;;;;5087219;28;20176;-76
2022/11/30 11:09:26;;;;;;;15.60;11.57;;;;;;;;;;5086264;28;20229;-76
2022/11/30 11:11:54;;;;;;;12.53;11.23;;;;;;;;;;5057205;28;20557;-75
2022/11/30 11:14:21;;;;;;;14.10;11.20;;;;;;;;;;5087084;28;20854;-76
2022/11/30 11:16:56;;;;;;;15.73;12.13;;;;;;;;;;5068717;28;20192;-76
2022/11/30 11:19:42;;;;;;;15.67;11.70;;;;;;;;;;5071308;28;20254;-76
2022/11/30 11:22:22;;;;;;;17.10;12.87;;;;;;;;;;5085845;28;20747;-77
2022/11/30 11:24:49;;;;;;;15.37;12.20;;;;;;;;;;5086808;28;20292;-77
2022/11/30 11:27:20;;;;;;;14.87;12.50;;;;;;;;;;5074198;28;21285;-78
2022/11/30 11:29:57;;;;;;;14.47;11.90;;;;;;;;;;5071549;28;20245;-76
2022/11/30 11:32:24;;;;;;;16.10;12.13;;;;;;;;;;5067109;28;20263;-76
2022/11/30 11:34:50;;;;;;;16.17;12.03;;;;;;;;;;5089796;28;20279;-76
2022/11/30 11:37:19;;;;;;;13.03;10.03;;;;;;;;;;5080941;28;20202;-76
2022/11/30 11:39:54;;;;;;;13.20;10.70;;;;;;;;;;5094810;28;20234;-77
2022/11/30 11:42:21;;;;;;;13.10;10.87;;;;;;;;;;5076889;28;20183;-76
2022/11/30 11:44:54;;;;;;;13.87;11.03;;;;;;;;;;5086974;28;20206;-76
2022/11/30 11:47:26;;;;;;;14.90;11.30;;;;;;;;;;5094041;28;20208;-76
2022/11/30 11:50:03;;;;;;;14.67;11.27;;;;;;;;;;5094371;28;20205;-77
2022/11/30 11:52:29;;;;;;;14.60;11.73;;;;;;;;;;5078042;28;20267;-76
2022/11/30 11:54:58;;;;;;;13.30;11.37;;;;;;;;;;5085088;28;20205;-76
2022/11/30 11:57:33;;;;;;;13.10;10.97;;;;;;;;;;5072544;28;20210;-76
2022/11/30 12:00:01;;;;;;;14.73;11.17;;;;;;;;;;5084057;28;20270;-76
2022/11/30 12:02:39;;;;;;;12.03;9.93;;;;;;;;;;5086727;28;20634;-76
2022/11/30 12:05:15;;;;;;;11.20;9.33;;;;;;;;;;5082899;28;20196;-76
2022/11/30 12:07:43;;;;;;;11.40;9.90;;;;;;;;;;5081693;28;20198;-76
2022/11/30 12:10:22;;;;;;;13.13;10.73;;;;;;;;;;5074077;28;20168;-76
2022/11/30 12:12:48;;;;;;;12.03;10.23;;;;;;;;;;5084016;28;20264;-77
2022/11/30 12:15:14;;;;;;;13.00;10.53;;;;;;;;;;5084447;28;20552;-76
2022/11/30 12:17:40;;;;;;;13.87;10.73;;;;;;;;;;5067079;28;20208;-77
2022/11/30 12:20:17;;;;;;;13.23;10.93;;;;;;;;;;5079895;28;20185;-76
2022/11/30 12:22:52;;;;;;;13.27;10.63;;;;;;;;;;5085503;28;20184;-76
2022/11/30 12:25:26;;;;;;;13.23;11.17;;;;;;;;;;5078353;28;20249;-75
2022/11/30 12:27:56;;;;;;;15.27;11.63;;;;;;;;;;5080686;28;20223;-76
2022/11/30 12:30:29;;;;;;;12.93;10.10;;;;;;;;;;5078674;28;20193;-80
2022/11/30 12:33:14;;;;;;;13.70;11.00;;;;;;;;;;5083105;28;20587;-76
2022/11/30 12:35:59;;;;;;;12.03;10.37;;;;;;;;;;5061339;28;20678;-75
2022/11/30 12:38:40;;;;;;;13.40;11.20;;;;;;;;;;5079465;28;20223;-75
2022/11/30 12:41:06;;;;;;;12.63;10.80;;;;;;;;;;5062654;28;20181;-76
2022/11/30 12:43:52;;;;;;;12.93;10.87;;;;;;;;;;5063713;28;20279;-75
2022/11/30 12:46:22;;;;;;;12.47;10.63;;;;;;;;;;5085203;28;20265;-75
2022/11/30 12:48:51;;;;;;;13.03;10.00;;;;;;;;;;5079918;28;20201;-76
2022/11/30 12:51:18;;;;;;;10.40;9.30;;;;;;;;;;5087198;28;20237;-77
2022/11/30 12:53:47;;;;;;;10.53;9.23;;;;;;;;;;5082921;28;20177;-77
2022/11/30 12:56:26;;;;;;;10.90;9.40;;;;;;;;;;5086342;28;20184;-78
2022/11/30 12:59:11;;;;;;;10.50;9.40;;;;;;;;;;5064379;28;20239;-77
2022/11/30 13:01:44;;;;;;;9.27;8.27;;;;;;;;;;5084765;28;20756;-77
2022/11/30 13:04:20;;;;;;;11.30;9.27;;;;;;;;;;5066041;28;20245;-77
2022/11/30 13:06:50;;;;;;;8.33;7.50;;;;;;;;;;5076884;28;20184;-76
2022/11/30 13:09:21;;;;;;;8.57;7.63;;;;;;;;;;5082742;28;20292;-76
2022/11/30 13:11:52;;;;;;;13.07;10.80;;;;;;;;;;5085303;28;20173;-77
2022/11/30 13:14:22;;;;;;;8.33;7.33;;;;;;;;;;5089040;28;20176;-77
2022/11/30 13:16:51;;;;;;;7.27;6.23;;;;;;;;;;5089145;28;20627;-79
2022/11/30 13:19:37;;;;;;;7.57;6.77;;;;;;;;;;5069486;28;20189;-82
2022/11/30 13:22:07;;;;;;;9.57;8.57;;;;;;;;;;5073366;28;20192;-80
2022/11/30 13:24:36;;;;;;;10.70;7.73;;;;;;;;;;5076790;28;20256;-80
2022/11/30 13:27:08;;;;;;;8.40;7.37;;;;;;;;;;5058236;28;20730;-79
2022/11/30 13:29:47;;;;;;;10.87;8.13;;;;;;;;;;5089909;28;20176;-78
2022/11/30 13:32:15;;;;;;;8.30;7.27;;;;;;;;;;5091564;28;20545;-81
2022/11/30 13:34:41;;;;;;;9.00;7.23;;;;;;;;;;5095161;28;20200;-76
2022/11/30 13:37:07;;;;;;;7.60;6.80;;;;;;;;;;5082835;28;20712;-74
2022/11/30 13:39:50;;;;;;;9.07;7.30;;;;;;;;;;5093405;28;20180;-76
2022/11/30 13:42:20;;;;;;;8.80;7.40;;;;;;;;;;5083883;28;20199;-78
2022/11/30 13:44:46;;;;;;;8.00;6.97;;;;;;;;;;5080141;28;20262;-78
2022/11/30 13:47:28;;;;;;;7.33;6.60;;;;;;;;;;5086082;28;20208;-79
2022/11/30 13:50:15;;;;;;;7.40;6.57;;;;;;;;;;5071000;28;20711;-80
2022/11/30 13:53:13;;;;;;;9.83;7.57;;;;;;;;;;5085059;28;20184;-80
2022/11/30 13:55:50;;;;;;;8.30;7.30;;;;;;;;;;5038693;28;20195;-79
2022/11/30 13:58:18;;;;;;;8.30;7.00;;;;;;;;;;5069376;28;20227;-79
2022/11/30 14:01:00;;;;;;;6.53;5.87;;;;;;;;;;5060243;28;20189;-80
2022/11/30 14:03:28;;;;;;;10.30;6.77;;;;;;;;;;5086517;28;20599;-79
2022/11/30 14:06:04;;;;;;;8.03;6.90;;;;;;;;;;5073413;28;20196;-80
2022/11/30 14:08:30;;;;;;;7.87;6.73;;;;;;;;;;5073022;28;20233;-80
2022/11/30 14:11:14;;;;;;;7.13;5.57;;;;;;;;;;5089817;28;20180;-80
2022/11/30 14:13:42;;;;;;;7.23;6.47;;;;;;;;;;5082815;28;20204;-75
2022/11/30 14:16:26;;;;;;;8.30;6.63;;;;;;;;;;5082464;28;20937;-78
2022/11/30 14:18:52;;;;;;;8.73;7.27;;;;;;;;;;5090646;28;20232;-79
2022/11/30 14:21:22;;;;;;;8.30;6.97;;;;;;;;;;5065351;28;20580;-79
2022/11/30 14:23:55;;;;;;;9.57;8.03;;;;;;;;;;5090001;28;20188;-78
2022/11/30 14:26:24;;;;;;;7.83;6.93;;;;;;;;;;5093918;28;20238;-78
2022/11/30 14:28:58;;;;;;;6.97;6.27;;;;;;;;;;5069975;28;20327;-79
2022/11/30 14:31:25;;;;;;;8.53;6.27;;;;;;;;;;5089601;28;20227;-76
2022/11/30 14:34:00;;;;;;;8.30;6.93;;;;;;;;;;5087922;28;20220;-78